createdAt,value
2023-02-15T00:00:25.904Z,1.63
2023-02-15T00:02:56.294Z,1.77
2023-02-15T00:05:28.203Z,1.58
2023-02-15T00:07:58.204Z,1.70
2023-02-15T00:10:28.733Z,1.75
2023-02-15T00:12:58.529Z,1.60
2023-02-15T00:15:28.999Z,2.00
2023-02-15T00:18:00.286Z,1.90
2023-02-15T00:20:32.278Z,1.85
2023-02-15T00:23:03.177Z,1.90
2023-02-15T00:25:32.773Z,2.00
2023-02-15T00:28:04.432Z,1.85
2023-02-15T00:30:35.300Z,1.70
2023-02-15T00:33:05.677Z,1.80
2023-02-15T00:35:37.713Z,1.90
2023-02-15T00:38:07.872Z,1.90
2023-02-15T00:40:38.874Z,2.05
2023-02-15T00:43:08.884Z,1.95
2023-02-15T00:45:40.981Z,2.00
2023-02-15T00:48:10.784Z,1.77
2023-02-15T00:50:42.730Z,1.80
2023-02-15T00:53:12.597Z,1.80
2023-02-15T00:55:42.509Z,1.60
2023-02-15T00:58:14.290Z,2.10
2023-02-15T01:00:47.515Z,1.75
2023-02-15T01:03:20.003Z,2.15
2023-02-15T01:05:55.542Z,1.70
2023-02-15T01:08:25.880Z,1.90
2023-02-15T01:10:56.146Z,1.90
2023-02-15T01:13:26.554Z,1.90
2023-02-15T01:15:58.528Z,2.00
2023-02-15T01:18:29.060Z,1.98
2023-02-15T01:21:01.363Z,1.90
2023-02-15T01:23:31.720Z,1.90
2023-02-15T01:26:06.340Z,1.77
2023-02-15T01:28:36.799Z,1.90
2023-02-15T01:31:10.574Z,1.85
2023-02-15T01:33:41.986Z,1.98
2023-02-15T01:36:18.731Z,2.20
2023-02-15T01:38:49.464Z,2.13
2023-02-15T01:41:27.568Z,2.00
2023-02-15T01:44:01.109Z,1.95
2023-02-15T01:46:38.680Z,2.00
2023-02-15T01:49:17.603Z,2.22
2023-02-15T01:51:54.176Z,2.17
2023-02-15T01:54:32.944Z,2.25
2023-02-15T01:57:08.583Z,2.40
2023-02-15T01:59:43.041Z,2.10
2023-02-15T02:02:17.174Z,2.13
2023-02-15T02:04:52.705Z,2.10
2023-02-15T02:07:29.278Z,2.30
2023-02-15T02:09:58.969Z,2.40
2023-02-15T02:12:30.226Z,2.33
2023-02-15T02:15:02.443Z,2.40
2023-02-15T02:17:51.321Z,2.45
2023-02-15T02:20:54.936Z,2.60
2023-02-15T02:24:26.550Z,2.33
2023-02-15T02:27:26.889Z,2.42
2023-02-15T02:30:42.695Z,2.20
2023-02-15T02:33:51.485Z,2.40
2023-02-15T02:36:35.085Z,2.78
2023-02-15T02:39:20.854Z,2.55
2023-02-15T02:42:05.021Z,2.60
2023-02-15T02:44:46.252Z,2.55
2023-02-15T02:47:26.222Z,2.50
2023-02-15T02:50:04.811Z,2.75
2023-02-15T02:52:45.275Z,2.90
2023-02-15T02:55:23.900Z,2.70
2023-02-15T02:58:02.543Z,2.80
2023-02-15T03:00:38.227Z,2.67
2023-02-15T03:03:16.552Z,2.70
2023-02-15T03:05:54.476Z,2.72
2023-02-15T03:08:32.539Z,3.00
2023-02-15T03:11:06.807Z,3.13
2023-02-15T03:13:38.093Z,2.92
2023-02-15T03:16:30.652Z,2.85
2023-02-15T03:19:09.778Z,2.95
2023-02-15T03:21:50.719Z,2.75
2023-02-15T03:24:27.418Z,3.00
2023-02-15T03:27:00.252Z,2.97
2023-02-15T03:29:33.801Z,2.67
2023-02-15T03:32:10.615Z,2.90
2023-02-15T03:34:40.649Z,2.80
2023-02-15T03:37:24.193Z,2.92
2023-02-15T03:40:21.684Z,3.20
2023-02-15T03:43:00.077Z,3.08
2023-02-15T03:45:36.701Z,2.75
2023-02-15T03:48:10.200Z,2.90
2023-02-15T03:50:59.606Z,2.70
2023-02-15T03:53:31.894Z,2.95
2023-02-15T03:56:02.174Z,2.78
2023-02-15T03:58:49.040Z,3.10
2023-02-15T04:01:59.192Z,2.75
2023-02-15T04:04:38.282Z,2.58
2023-02-15T04:07:10.659Z,2.55
2023-02-15T04:09:59.710Z,2.90
2023-02-15T04:12:29.992Z,3.00
2023-02-15T04:15:17.014Z,2.75
2023-02-15T04:17:46.970Z,2.47
2023-02-15T04:20:34.141Z,2.90
2023-02-15T04:23:21.291Z,2.55
2023-02-15T04:25:53.651Z,2.63
2023-02-15T04:28:24.133Z,2.70
2023-02-15T04:30:54.380Z,2.65
2023-02-15T04:33:24.858Z,2.75
2023-02-15T04:35:55.081Z,2.58
2023-02-15T04:38:25.670Z,3.00
2023-02-15T04:41:01.500Z,2.72
2023-02-15T04:43:31.176Z,2.90
2023-02-15T04:46:02.013Z,2.92
2023-02-15T04:48:32.327Z,3.05
2023-02-15T04:51:01.913Z,3.10
2023-02-15T04:53:31.787Z,3.10
2023-02-15T04:56:04.466Z,2.92
2023-02-15T04:58:34.875Z,3.05
2023-02-15T05:01:04.639Z,3.10
2023-02-15T05:03:34.950Z,3.22
2023-02-15T05:06:05.563Z,3.13
2023-02-15T05:08:35.948Z,3.00
2023-02-15T05:11:07.942Z,3.13
2023-02-15T05:13:37.883Z,3.10
2023-02-15T05:16:08.556Z,3.47
2023-02-15T05:18:38.500Z,3.10
2023-02-15T05:21:08.951Z,3.33
2023-02-15T05:23:39.303Z,3.08
2023-02-15T05:26:31.385Z,3.25
2023-02-15T05:29:01.140Z,2.92
2023-02-15T05:31:31.300Z,2.70
2023-02-15T05:34:01.889Z,3.00
2023-02-15T05:36:32.230Z,2.90
2023-02-15T05:39:02.619Z,2.65
2023-02-15T05:41:34.989Z,3.10
2023-02-15T05:44:05.337Z,2.70
2023-02-15T05:46:35.772Z,2.58
2023-02-15T05:49:06.321Z,2.85
2023-02-15T05:51:36.357Z,2.78
2023-02-15T05:54:06.845Z,2.67
2023-02-15T05:56:38.431Z,2.83
2023-02-15T05:59:08.877Z,2.85
2023-02-15T06:01:39.745Z,2.72
2023-02-15T06:04:09.953Z,2.65
2023-02-15T06:06:40.077Z,3.00
2023-02-15T06:09:10.583Z,2.60
2023-02-15T06:11:42.826Z,2.80
2023-02-15T06:14:13.154Z,2.65
2023-02-15T06:16:43.547Z,2.63
2023-02-15T06:19:13.508Z,2.47
2023-02-15T06:21:43.493Z,2.53
2023-02-15T06:24:14.170Z,2.80
2023-02-15T06:26:46.697Z,2.65
2023-02-15T06:29:17.254Z,2.75
2023-02-15T06:31:47.695Z,2.45
2023-02-15T06:34:18.380Z,3.13
2023-02-15T06:36:48.655Z,2.90
2023-02-15T06:39:18.638Z,2.90
2023-02-15T06:41:51.020Z,2.65
2023-02-15T06:44:21.462Z,2.78
2023-02-15T06:46:51.797Z,2.65
2023-02-15T06:49:22.001Z,3.05
2023-02-15T06:51:51.650Z,2.70
2023-02-15T06:54:22.191Z,2.67
2023-02-15T06:56:54.536Z,2.50
2023-02-15T06:59:24.411Z,2.75
2023-02-15T07:01:54.757Z,2.60
2023-02-15T07:04:24.767Z,2.53
2023-02-15T07:06:54.496Z,2.53
2023-02-15T07:09:25.253Z,2.75
2023-02-15T07:12:13.925Z,2.97
2023-02-15T07:14:44.067Z,3.17
2023-02-15T07:17:32.971Z,2.97
2023-02-15T07:20:04.453Z,3.08
2023-02-15T07:22:37.448Z,2.65
2023-02-15T07:25:07.756Z,2.95
2023-02-15T07:27:39.387Z,3.00
2023-02-15T07:30:14.003Z,2.78
2023-02-15T07:32:57.338Z,2.72
2023-02-15T07:35:27.890Z,2.53
2023-02-15T07:37:58.695Z,2.78
2023-02-15T07:40:29.331Z,2.75
2023-02-15T07:43:02.546Z,2.80
2023-02-15T07:45:32.613Z,2.80
2023-02-15T07:48:05.585Z,2.75
2023-02-15T07:50:36.227Z,2.72
2023-02-15T07:53:07.870Z,2.40
2023-02-15T07:55:37.574Z,2.55
2023-02-15T07:58:09.333Z,2.50
2023-02-15T08:00:57.655Z,2.30
2023-02-15T08:03:28.552Z,1.98
2023-02-15T08:06:01.609Z,2.03
2023-02-15T08:08:34.779Z,2.50
2023-02-15T08:11:25.898Z,2.17
2023-02-15T08:14:00.769Z,2.38
2023-02-15T08:16:35.233Z,2.10
2023-02-15T08:19:08.175Z,2.10
2023-02-15T08:21:40.551Z,2.00
2023-02-15T08:24:13.087Z,2.05
2023-02-15T08:26:46.350Z,2.28
2023-02-15T08:29:20.176Z,2.00
2023-02-15T08:31:51.928Z,2.08
2023-02-15T08:34:23.491Z,2.38
2023-02-15T08:36:54.157Z,2.40
2023-02-15T08:39:24.727Z,1.88
2023-02-15T08:41:55.049Z,2.10
2023-02-15T08:44:27.194Z,2.20
2023-02-15T08:47:00.043Z,2.03
2023-02-15T08:49:30.045Z,2.05
2023-02-15T08:52:00.005Z,2.00
2023-02-15T08:54:29.967Z,2.00
2023-02-15T08:57:00.362Z,2.00
2023-02-15T08:59:32.737Z,2.03
2023-02-15T09:02:04.408Z,2.33
2023-02-15T09:04:35.043Z,2.10
2023-02-15T09:07:05.831Z,2.05
2023-02-15T09:09:36.345Z,2.08
2023-02-15T09:12:06.997Z,2.25
2023-02-15T09:14:39.189Z,2.42
2023-02-15T09:17:09.566Z,2.10
2023-02-15T09:19:39.908Z,1.85
2023-02-15T09:22:10.253Z,1.70
2023-02-15T09:24:40.660Z,1.60
2023-02-15T09:27:11.120Z,1.17
2023-02-15T09:29:43.607Z,1.25
2023-02-15T09:32:18.984Z,1.15
2023-02-15T09:34:49.507Z,1.17
2023-02-15T09:37:19.506Z,0.88
2023-02-15T09:39:50.424Z,1.00
2023-02-15T09:42:57.771Z,0.90
2023-02-15T09:45:48.050Z,0.90
2023-02-15T09:48:42.817Z,0.98
2023-02-15T09:51:53.656Z,0.75
2023-02-15T09:54:49.202Z,1.10
2023-02-15T09:57:34.098Z,1.02
2023-02-15T10:00:23.642Z,0.80
2023-02-15T10:03:19.002Z,0.82
2023-02-15T10:06:17.223Z,1.10
2023-02-15T10:09:30.560Z,0.85
2023-02-15T10:12:25.778Z,0.90
2023-02-15T10:15:41.459Z,0.90
2023-02-15T10:18:58.410Z,1.20
2023-02-15T10:21:47.372Z,1.08
2023-02-15T10:24:47.204Z,0.80
2023-02-15T10:27:24.633Z,0.80
2023-02-15T10:30:11.516Z,1.00
2023-02-15T10:32:59.342Z,1.20
2023-02-15T10:35:47.877Z,0.98
2023-02-15T10:38:34.859Z,1.10
2023-02-15T10:41:25.818Z,1.10
2023-02-15T10:44:27.649Z,0.93
2023-02-15T10:47:25.727Z,1.15
2023-02-15T10:50:28.285Z,1.05
2023-02-15T10:53:17.613Z,0.98
2023-02-15T10:56:01.339Z,1.30
2023-02-15T10:58:55.690Z,1.20
2023-02-15T11:01:36.410Z,1.50
2023-02-15T11:04:43.075Z,1.20
2023-02-15T11:07:23.686Z,1.30
2023-02-15T11:10:09.449Z,1.40
2023-02-15T11:12:40.113Z,1.30
2023-02-15T11:15:23.388Z,1.33
2023-02-15T11:18:02.668Z,1.33
2023-02-15T11:20:39.427Z,1.10
2023-02-15T11:23:19.865Z,1.30
2023-02-15T11:26:02.687Z,1.42
2023-02-15T11:28:41.897Z,1.17
2023-02-15T11:31:22.606Z,1.20
2023-02-15T11:34:02.487Z,1.00
2023-02-15T11:36:38.649Z,0.98
2023-02-15T11:39:17.810Z,0.88
2023-02-15T11:41:57.131Z,0.80
2023-02-15T11:44:35.365Z,0.70
2023-02-15T11:47:06.002Z,0.47
2023-02-15T11:49:38.984Z,0.50
2023-02-15T11:52:15.141Z,0.70
2023-02-15T11:54:48.963Z,0.50
2023-02-15T11:57:28.873Z,0.55
2023-02-15T12:00:10.137Z,0.60
2023-02-15T12:02:45.713Z,0.50
2023-02-15T12:05:23.524Z,0.45
2023-02-15T12:08:00.573Z,0.70
2023-02-15T12:10:38.378Z,0.75
2023-02-15T12:13:19.253Z,0.80
2023-02-15T12:15:52.500Z,0.90
2023-02-15T12:18:41.836Z,0.80
2023-02-15T12:21:15.262Z,0.85
2023-02-15T12:23:53.930Z,1.00
2023-02-15T12:26:30.808Z,1.10
2023-02-15T12:29:10.154Z,0.80
2023-02-15T12:31:47.383Z,0.70
2023-02-15T12:34:25.945Z,0.90
2023-02-15T12:37:01.648Z,0.80
2023-02-15T12:39:33.578Z,0.98
2023-02-15T12:42:08.944Z,0.60
2023-02-15T12:44:41.092Z,0.68
2023-02-15T12:47:28.860Z,0.77
2023-02-15T12:50:18.244Z,0.70
2023-02-15T12:52:50.401Z,0.60
2023-02-15T12:55:31.339Z,0.70
2023-02-15T12:58:22.955Z,0.60
2023-02-15T13:01:14.272Z,0.50
2023-02-15T13:04:02.193Z,0.70
2023-02-15T13:06:36.200Z,0.52
2023-02-15T13:09:19.240Z,0.60
2023-02-15T13:11:51.178Z,0.47
2023-02-15T13:14:24.432Z,0.63
2023-02-15T13:17:01.753Z,0.60
2023-02-15T13:19:38.979Z,0.73
2023-02-15T13:22:16.978Z,0.60
2023-02-15T13:24:51.431Z,0.55
2023-02-15T13:27:26.325Z,0.47
2023-02-15T13:30:02.289Z,0.70
2023-02-15T13:32:39.358Z,0.50
2023-02-15T13:35:19.287Z,0.57
2023-02-15T13:38:18.532Z,0.68
2023-02-15T13:40:57.371Z,0.50
2023-02-15T13:43:49.383Z,0.47
2023-02-15T13:46:42.635Z,0.52
2023-02-15T13:49:40.621Z,0.47
2023-02-15T13:52:23.600Z,0.70
2023-02-15T13:55:24.444Z,0.65
2023-02-15T13:58:38.489Z,0.40
2023-02-15T14:01:22.009Z,1.00
2023-02-15T14:04:24.125Z,0.70
2023-02-15T14:07:27.468Z,0.90
2023-02-15T14:10:22.130Z,0.70
2023-02-15T14:13:14.517Z,0.75
2023-02-15T14:15:54.090Z,1.00
2023-02-15T14:18:39.310Z,0.60
2023-02-15T14:21:22.975Z,0.95
2023-02-15T14:24:16.411Z,0.80
2023-02-15T14:26:58.349Z,0.68
2023-02-15T14:29:47.361Z,0.65
2023-02-15T14:32:27.623Z,0.70
2023-02-15T14:35:02.169Z,0.60
2023-02-15T14:37:46.356Z,1.00
2023-02-15T14:40:49.308Z,0.80
2023-02-15T14:43:34.024Z,0.70
2023-02-15T14:46:15.368Z,0.85
2023-02-15T14:48:53.044Z,0.93
2023-02-15T14:52:09.892Z,1.23
2023-02-15T14:55:03.964Z,1.17
2023-02-15T14:57:37.469Z,0.98
2023-02-15T15:00:41.813Z,1.10
2023-02-15T15:03:25.912Z,1.10
2023-02-15T15:06:02.255Z,1.05
2023-02-15T15:08:41.629Z,0.98
2023-02-15T15:11:48.333Z,0.85
2023-02-15T15:14:45.652Z,0.90
2023-02-15T15:18:04.034Z,0.90
2023-02-15T15:20:51.187Z,1.05
2023-02-15T15:23:49.654Z,1.27
2023-02-15T15:26:50.529Z,1.27
2023-02-15T15:29:44.051Z,1.20
2023-02-15T15:32:31.252Z,1.30
2023-02-15T15:35:27.358Z,1.27
2023-02-15T15:38:34.919Z,1.00
2023-02-15T15:41:21.447Z,0.80
2023-02-15T15:44:58.672Z,1.00
2023-02-15T15:48:07.029Z,0.90
2023-02-15T15:50:38.090Z,0.95
2023-02-15T15:53:23.405Z,0.80
2023-02-15T15:55:58.814Z,1.00
2023-02-15T15:58:29.154Z,1.30
2023-02-15T16:01:11.304Z,1.30
2023-02-15T16:03:41.864Z,1.10
2023-02-15T16:06:18.205Z,1.00
2023-02-15T16:08:48.302Z,1.20
2023-02-15T16:11:24.317Z,1.17
2023-02-15T16:13:56.274Z,0.82
2023-02-15T16:16:32.772Z,1.00
2023-02-15T16:19:03.873Z,0.93
2023-02-15T16:21:39.932Z,0.80
2023-02-15T16:25:28.849Z,0.73
2023-02-15T16:27:59.652Z,0.98
2023-02-15T16:30:33.258Z,1.00
2023-02-15T16:33:15.272Z,0.93
2023-02-15T16:35:59.864Z,0.82
2023-02-15T16:39:10.772Z,1.05
2023-02-15T16:41:43.338Z,1.00
2023-02-15T16:44:21.865Z,1.20
2023-02-15T16:46:56.919Z,1.35
2023-02-15T16:49:32.957Z,1.00
2023-02-15T16:52:06.963Z,0.73
2023-02-15T16:54:38.653Z,1.00
2023-02-15T16:57:16.587Z,1.23
2023-02-15T16:59:52.385Z,1.30
2023-02-15T17:02:49.738Z,1.20
2023-02-15T17:05:24.913Z,1.27
2023-02-15T17:08:16.574Z,1.00
2023-02-15T17:11:07.792Z,1.30
2023-02-15T17:13:38.234Z,1.50
2023-02-15T17:16:33.221Z,1.60
2023-02-15T17:19:05.318Z,1.48
2023-02-15T17:21:44.998Z,1.80
2023-02-15T17:24:25.010Z,1.50
2023-02-15T17:27:03.143Z,1.55
2023-02-15T17:29:40.246Z,1.77
2023-02-15T17:32:22.118Z,1.70
2023-02-15T17:35:12.894Z,1.50
2023-02-15T17:37:51.823Z,1.55
2023-02-15T17:40:28.326Z,1.35
2023-02-15T17:42:59.159Z,1.63
2023-02-15T17:45:39.074Z,1.45
2023-02-15T17:48:17.081Z,1.55
2023-02-15T17:50:47.577Z,1.70
2023-02-15T17:53:22.392Z,1.55
2023-02-15T17:55:51.002Z,1.80
2023-02-15T17:58:22.996Z,1.63
2023-02-15T18:01:14.393Z,1.75
2023-02-15T18:04:04.325Z,1.42
2023-02-15T18:06:52.079Z,1.50
2023-02-15T18:09:43.346Z,1.50
2023-02-15T18:12:24.345Z,1.40
2023-02-15T18:14:56.878Z,1.67
2023-02-15T18:17:35.379Z,1.70
2023-02-15T18:20:09.846Z,1.48
2023-02-15T18:22:40.910Z,1.70
2023-02-15T18:25:17.600Z,1.48
2023-02-15T18:27:49.057Z,1.90
2023-02-15T18:30:22.588Z,1.80
2023-02-15T18:32:57.042Z,1.70
2023-02-15T18:35:32.887Z,1.70
2023-02-15T18:38:04.738Z,1.80
2023-02-15T18:40:37.714Z,1.70
2023-02-15T18:43:08.134Z,1.67
2023-02-15T18:45:39.513Z,1.70
2023-02-15T18:48:10.638Z,1.42
2023-02-15T18:50:41.775Z,1.48
2023-02-15T18:53:22.113Z,1.52
2023-02-15T18:55:55.341Z,1.52
2023-02-15T18:58:29.482Z,1.73
2023-02-15T19:01:01.606Z,1.60
2023-02-15T19:03:32.844Z,1.58
2023-02-15T19:06:05.855Z,1.48
2023-02-15T19:08:37.372Z,1.70
2023-02-15T19:11:20.254Z,1.17
2023-02-15T19:13:51.348Z,1.60
2023-02-15T19:16:36.020Z,1.55
2023-02-15T19:19:07.495Z,1.70
2023-02-15T19:21:38.004Z,1.63
2023-02-15T19:24:18.289Z,1.80
2023-02-15T19:26:52.393Z,1.88
2023-02-15T19:29:30.127Z,2.33
2023-02-15T19:32:00.354Z,2.03
2023-02-15T19:34:31.398Z,1.80
2023-02-15T19:37:02.596Z,1.90
2023-02-15T19:39:41.089Z,1.90
2023-02-15T19:42:19.145Z,1.77
2023-02-15T19:44:49.749Z,1.65
2023-02-15T19:47:19.999Z,1.60
2023-02-15T19:49:50.505Z,1.45
2023-02-15T19:52:26.193Z,1.70
2023-02-15T19:54:58.382Z,1.58
2023-02-15T19:57:32.116Z,1.60
2023-02-15T20:00:15.912Z,1.48
2023-02-15T20:02:51.426Z,1.40
2023-02-15T20:05:23.424Z,1.70
2023-02-15T20:07:55.938Z,1.38
2023-02-15T20:10:30.814Z,1.40
2023-02-15T20:13:04.872Z,1.27
2023-02-15T20:15:38.106Z,1.77
2023-02-15T20:18:08.174Z,1.60
2023-02-15T20:20:49.751Z,1.80
2023-02-15T20:23:25.154Z,2.00
2023-02-15T20:25:57.113Z,1.77
2023-02-15T20:28:31.944Z,1.70
2023-02-15T20:31:02.580Z,1.70
2023-02-15T20:33:33.482Z,1.45
2023-02-15T20:36:03.881Z,1.58
2023-02-15T20:38:35.863Z,1.60
2023-02-15T20:41:22.870Z,1.40
2023-02-15T20:43:55.336Z,1.50
2023-02-15T20:46:25.931Z,1.70
2023-02-15T20:48:56.744Z,1.40
2023-02-15T20:51:27.393Z,1.40
2023-02-15T20:53:57.735Z,1.23
2023-02-15T20:56:28.663Z,1.35
2023-02-15T20:59:00.974Z,1.40
2023-02-15T21:01:32.837Z,1.50
2023-02-15T21:04:03.978Z,1.40
2023-02-15T21:06:34.433Z,1.23
2023-02-15T21:09:05.196Z,1.35
2023-02-15T21:11:34.947Z,1.30
2023-02-15T21:14:06.672Z,1.33
2023-02-15T21:16:36.960Z,1.30
2023-02-15T21:19:16.903Z,1.52
2023-02-15T21:21:48.659Z,1.30
2023-02-15T21:24:23.799Z,1.20
2023-02-15T21:26:55.913Z,1.08
2023-02-15T21:29:31.245Z,1.30
2023-02-15T21:32:03.199Z,1.33
2023-02-15T21:34:33.692Z,1.20
2023-02-15T21:37:05.435Z,1.50
2023-02-15T21:39:39.735Z,1.50
2023-02-15T21:42:30.310Z,1.45
2023-02-15T21:45:18.668Z,1.55
2023-02-15T21:47:55.475Z,1.45
2023-02-15T21:50:44.686Z,1.40
2023-02-15T21:53:25.418Z,1.50
2023-02-15T21:56:00.309Z,1.55
2023-02-15T21:58:33.608Z,1.60
2023-02-15T22:01:06.070Z,1.33
2023-02-15T22:03:40.119Z,1.40
2023-02-15T22:06:15.722Z,1.50
2023-02-15T22:08:46.349Z,1.48
2023-02-15T22:11:19.152Z,1.67
2023-02-15T22:13:51.434Z,1.55
2023-02-15T22:16:26.089Z,1.58
2023-02-15T22:18:56.633Z,1.40
2023-02-15T22:21:27.608Z,1.50
2023-02-15T22:23:57.862Z,1.50
2023-02-15T22:26:29.113Z,1.38
2023-02-15T22:29:00.687Z,1.73
2023-02-15T22:31:33.123Z,2.08
2023-02-15T22:34:03.547Z,1.90
2023-02-15T22:36:34.454Z,1.58
2023-02-15T22:39:04.666Z,1.75
2023-02-15T22:41:44.339Z,1.65
2023-02-15T22:44:18.639Z,1.73
2023-02-15T22:46:55.220Z,1.90
2023-02-15T22:49:25.747Z,1.88
2023-02-15T22:51:56.426Z,1.80
2023-02-15T22:54:27.738Z,1.55
2023-02-15T22:56:58.173Z,1.58
2023-02-15T22:59:34.655Z,1.50
2023-02-15T23:02:08.263Z,1.65
2023-02-15T23:04:38.040Z,1.40
2023-02-15T23:07:15.507Z,1.27
2023-02-15T23:09:46.651Z,1.33
2023-02-15T23:12:28.514Z,1.35
2023-02-15T23:15:00.780Z,1.30
2023-02-15T23:17:32.178Z,1.27
2023-02-15T23:20:03.268Z,1.13
2023-02-15T23:22:33.739Z,1.40
2023-02-15T23:25:04.248Z,1.50
2023-02-15T23:27:50.443Z,1.42
2023-02-15T23:30:21.583Z,1.40
2023-02-15T23:32:55.691Z,1.42
2023-02-15T23:35:26.456Z,1.73
2023-02-15T23:37:56.418Z,1.45
2023-02-15T23:40:51.649Z,1.30
2023-02-15T23:43:25.497Z,0.95
2023-02-15T23:45:55.340Z,1.15
2023-02-15T23:48:40.456Z,1.10
2023-02-15T23:51:14.053Z,1.17
2023-02-15T23:53:44.112Z,1.23
2023-02-15T23:56:16.160Z,1.10
2023-02-15T23:58:48.987Z,1.23
